Aviation Digital Data Service (ADDS)

Output produced by METARs form (0230 UTC 26 July 2017)
found at http://www.aviationweather.gov/adds/metars/
 
KSBY 260154Z 00000KT 10SM CLR 22/20 A3016 RMK AO2 SLP214 T02170200
KSBY 252330Z 2600/2624 04004KT P6SM FEW070 
     FM260400 06004KT P6SM SCT250 
     FM261500 08008KT P6SM BKN050 
     FM262000 11008KT P6SM SCT025